sensor_id;sensor_type;location;lat;lon;timestamp;P1;durP1;ratioP1;P2;durP2;ratioP2
41685;SDS011;27370;42.764;23.432;2022-11-15T00:01:47;89.72;;;48.10;;
41685;SDS011;27370;42.764;23.432;2022-11-15T00:04:31;93.88;;;49.15;;
41685;SDS011;27370;42.764;23.432;2022-11-15T00:07:15;92.63;;;48.65;;
41685;SDS011;27370;42.764;23.432;2022-11-15T00:09:59;89.15;;;49.20;;
41685;SDS011;27370;42.764;23.432;2022-11-15T00:12:43;86.85;;;48.47;;
41685;SDS011;27370;42.764;23.432;2022-11-15T00:15:27;79.35;;;46.67;;
41685;SDS011;27370;42.764;23.432;2022-11-15T00:18:12;81.85;;;47.00;;
41685;SDS011;27370;42.764;23.432;2022-11-15T00:21:02;74.78;;;44.83;;
41685;SDS011;27370;42.764;23.432;2022-11-15T00:23:49;162.25;;;51.28;;
41685;SDS011;27370;42.764;23.432;2022-11-15T00:26:33;260.55;;;56.38;;
41685;SDS011;27370;42.764;23.432;2022-11-15T00:29:17;103.15;;;54.05;;
41685;SDS011;27370;42.764;23.432;2022-11-15T00:32:00;125.90;;;60.10;;
41685;SDS011;27370;42.764;23.432;2022-11-15T00:34:44;120.10;;;51.55;;
41685;SDS011;27370;42.764;23.432;2022-11-15T00:37:28;128.77;;;57.78;;
41685;SDS011;27370;42.764;23.432;2022-11-15T00:40:12;303.55;;;64.95;;
41685;SDS011;27370;42.764;23.432;2022-11-15T00:42:57;391.33;;;70.57;;
41685;SDS011;27370;42.764;23.432;2022-11-15T00:45:41;323.17;;;73.63;;
41685;SDS011;27370;42.764;23.432;2022-11-15T00:48:25;490.15;;;81.82;;
41685;SDS011;27370;42.764;23.432;2022-11-15T00:51:09;570.13;;;86.85;;
41685;SDS011;27370;42.764;23.432;2022-11-15T00:53:53;590.25;;;84.68;;
41685;SDS011;27370;42.764;23.432;2022-11-15T00:56:37;693.42;;;97.15;;
41685;SDS011;27370;42.764;23.432;2022-11-15T00:59:21;599.13;;;89.75;;
41685;SDS011;27370;42.764;23.432;2022-11-15T01:02:05;602.90;;;90.43;;
41685;SDS011;27370;42.764;23.432;2022-11-15T01:04:49;383.90;;;63.88;;
41685;SDS011;27370;42.764;23.432;2022-11-15T01:07:33;472.02;;;72.15;;
41685;SDS011;27370;42.764;23.432;2022-11-15T01:10:17;512.53;;;73.07;;
41685;SDS011;27370;42.764;23.432;2022-11-15T01:13:01;546.00;;;75.43;;
41685;SDS011;27370;42.764;23.432;2022-11-15T01:15:45;505.38;;;75.55;;
41685;SDS011;27370;42.764;23.432;2022-11-15T01:18:28;356.77;;;61.25;;
41685;SDS011;27370;42.764;23.432;2022-11-15T01:21:14;494.40;;;72.38;;
41685;SDS011;27370;42.764;23.432;2022-11-15T01:23:59;537.92;;;70.20;;
41685;SDS011;27370;42.764;23.432;2022-11-15T01:26:43;357.48;;;60.38;;
41685;SDS011;27370;42.764;23.432;2022-11-15T01:29:27;430.10;;;67.93;;
41685;SDS011;27370;42.764;23.432;2022-11-15T01:32:11;394.55;;;70.63;;
41685;SDS011;27370;42.764;23.432;2022-11-15T01:34:55;331.02;;;61.78;;
41685;SDS011;27370;42.764;23.432;2022-11-15T01:37:39;327.67;;;60.83;;
41685;SDS011;27370;42.764;23.432;2022-11-15T01:40:23;346.08;;;63.10;;
41685;SDS011;27370;42.764;23.432;2022-11-15T01:43:23;281.20;;;58.78;;
41685;SDS011;27370;42.764;23.432;2022-11-15T01:49:18;284.85;;;55.38;;
41685;SDS011;27370;42.764;23.432;2022-11-15T01:52:06;290.60;;;59.15;;
41685;SDS011;27370;42.764;23.432;2022-11-15T01:55:05;425.55;;;84.88;;
41685;SDS011;27370;42.764;23.432;2022-11-15T01:57:59;348.48;;;78.43;;
41685;SDS011;27370;42.764;23.432;2022-11-15T02:00:46;254.10;;;74.80;;
41685;SDS011;27370;42.764;23.432;2022-11-15T02:03:38;332.00;;;81.78;;
41685;SDS011;27370;42.764;23.432;2022-11-15T02:06:26;332.33;;;82.20;;
41685;SDS011;27370;42.764;23.432;2022-11-15T02:09:10;305.73;;;83.07;;
41685;SDS011;27370;42.764;23.432;2022-11-15T02:11:55;356.17;;;82.50;;
41685;SDS011;27370;42.764;23.432;2022-11-15T02:14:39;313.90;;;79.13;;
41685;SDS011;27370;42.764;23.432;2022-11-15T02:20:50;377.20;;;81.35;;
41685;SDS011;27370;42.764;23.432;2022-11-15T02:30:00;375.15;;;79.03;;
41685;SDS011;27370;42.764;23.432;2022-11-15T02:35:56;330.95;;;82.00;;
41685;SDS011;27370;42.764;23.432;2022-11-15T02:44:39;357.45;;;88.47;;
41685;SDS011;27370;42.764;23.432;2022-11-15T02:47:28;400.30;;;89.10;;
41685;SDS011;27370;42.764;23.432;2022-11-15T02:50:17;453.02;;;90.97;;
41685;SDS011;27370;42.764;23.432;2022-11-15T02:53:04;408.80;;;89.97;;
41685;SDS011;27370;42.764;23.432;2022-11-15T02:55:48;302.70;;;82.78;;
41685;SDS011;27370;42.764;23.432;2022-11-15T03:04:58;286.67;;;79.03;;
41685;SDS011;27370;42.764;23.432;2022-11-15T03:19:46;253.18;;;65.10;;
41685;SDS011;27370;42.764;23.432;2022-11-15T03:22:34;215.80;;;57.47;;
41685;SDS011;27370;42.764;23.432;2022-11-15T03:25:22;246.88;;;58.25;;
41685;SDS011;27370;42.764;23.432;2022-11-15T03:28:08;202.73;;;58.17;;
41685;SDS011;27370;42.764;23.432;2022-11-15T03:30:56;232.68;;;70.70;;
41685;SDS011;27370;42.764;23.432;2022-11-15T03:33:40;201.85;;;69.10;;
41685;SDS011;27370;42.764;23.432;2022-11-15T03:36:25;173.00;;;72.82;;
41685;SDS011;27370;42.764;23.432;2022-11-15T03:39:10;189.38;;;77.07;;
41685;SDS011;27370;42.764;23.432;2022-11-15T03:42:00;217.43;;;80.65;;
41685;SDS011;27370;42.764;23.432;2022-11-15T03:47:38;208.98;;;76.85;;
41685;SDS011;27370;42.764;23.432;2022-11-15T03:50:27;232.65;;;80.90;;
41685;SDS011;27370;42.764;23.432;2022-11-15T03:53:15;223.48;;;80.40;;
41685;SDS011;27370;42.764;23.432;2022-11-15T03:55:58;228.30;;;81.50;;
41685;SDS011;27370;42.764;23.432;2022-11-15T03:58:42;248.20;;;81.95;;
41685;SDS011;27370;42.764;23.432;2022-11-15T04:01:26;248.80;;;80.25;;
41685;SDS011;27370;42.764;23.432;2022-11-15T04:04:10;366.23;;;88.53;;
41685;SDS011;27370;42.764;23.432;2022-11-15T04:06:54;308.58;;;76.68;;
41685;SDS011;27370;42.764;23.432;2022-11-15T04:09:38;325.60;;;75.95;;
41685;SDS011;27370;42.764;23.432;2022-11-15T04:12:43;268.70;;;68.90;;
41685;SDS011;27370;42.764;23.432;2022-11-15T04:15:30;297.52;;;69.82;;
41685;SDS011;27370;42.764;23.432;2022-11-15T04:18:14;263.35;;;69.40;;
41685;SDS011;27370;42.764;23.432;2022-11-15T04:20:58;311.70;;;69.53;;
41685;SDS011;27370;42.764;23.432;2022-11-15T04:24:01;256.45;;;61.92;;
41685;SDS011;27370;42.764;23.432;2022-11-15T04:26:57;248.60;;;61.83;;
41685;SDS011;27370;42.764;23.432;2022-11-15T04:29:42;322.10;;;66.40;;
41685;SDS011;27370;42.764;23.432;2022-11-15T04:32:26;359.52;;;69.85;;
41685;SDS011;27370;42.764;23.432;2022-11-15T04:35:09;412.45;;;75.97;;
41685;SDS011;27370;42.764;23.432;2022-11-15T04:37:54;311.35;;;63.60;;
41685;SDS011;27370;42.764;23.432;2022-11-15T04:40:39;271.58;;;61.97;;
41685;SDS011;27370;42.764;23.432;2022-11-15T04:43:23;343.13;;;65.13;;
41685;SDS011;27370;42.764;23.432;2022-11-15T04:46:07;312.85;;;62.72;;
41685;SDS011;27370;42.764;23.432;2022-11-15T04:48:51;316.55;;;66.28;;
41685;SDS011;27370;42.764;23.432;2022-11-15T04:51:36;402.20;;;78.05;;
41685;SDS011;27370;42.764;23.432;2022-11-15T04:54:19;335.88;;;70.32;;
41685;SDS011;27370;42.764;23.432;2022-11-15T04:57:03;478.65;;;80.97;;
41685;SDS011;27370;42.764;23.432;2022-11-15T04:59:47;395.75;;;72.90;;
41685;SDS011;27370;42.764;23.432;2022-11-15T05:02:31;413.13;;;75.05;;
41685;SDS011;27370;42.764;23.432;2022-11-15T05:05:34;429.83;;;73.88;;
41685;SDS011;27370;42.764;23.432;2022-11-15T05:08:18;442.58;;;80.93;;
41685;SDS011;27370;42.764;23.432;2022-11-15T05:11:02;294.63;;;69.35;;
41685;SDS011;27370;42.764;23.432;2022-11-15T05:13:46;362.13;;;74.90;;
41685;SDS011;27370;42.764;23.432;2022-11-15T05:16:30;376.98;;;73.22;;
41685;SDS011;27370;42.764;23.432;2022-11-15T05:19:14;306.95;;;66.68;;
41685;SDS011;27370;42.764;23.432;2022-11-15T05:21:58;439.38;;;72.88;;
41685;SDS011;27370;42.764;23.432;2022-11-15T05:24:42;470.60;;;72.07;;
41685;SDS011;27370;42.764;23.432;2022-11-15T05:27:26;361.08;;;65.05;;
41685;SDS011;27370;42.764;23.432;2022-11-15T05:30:10;569.88;;;80.20;;
41685;SDS011;27370;42.764;23.432;2022-11-15T05:32:54;345.38;;;64.15;;
41685;SDS011;27370;42.764;23.432;2022-11-15T05:35:39;360.38;;;67.10;;
41685;SDS011;27370;42.764;23.432;2022-11-15T05:38:25;415.13;;;76.13;;
41685;SDS011;27370;42.764;23.432;2022-11-15T05:41:10;564.90;;;92.72;;
41685;SDS011;27370;42.764;23.432;2022-11-15T05:43:55;560.15;;;90.70;;
41685;SDS011;27370;42.764;23.432;2022-11-15T05:46:40;532.90;;;88.25;;
41685;SDS011;27370;42.764;23.432;2022-11-15T05:49:26;495.25;;;89.75;;
41685;SDS011;27370;42.764;23.432;2022-11-15T05:55:00;391.08;;;77.40;;
41685;SDS011;27370;42.764;23.432;2022-11-15T05:57:45;413.02;;;80.13;;
41685;SDS011;27370;42.764;23.432;2022-11-15T06:00:29;455.08;;;86.18;;
41685;SDS011;27370;42.764;23.432;2022-11-15T06:03:13;511.85;;;91.75;;
41685;SDS011;27370;42.764;23.432;2022-11-15T06:05:57;410.45;;;80.95;;
41685;SDS011;27370;42.764;23.432;2022-11-15T06:08:41;488.88;;;98.93;;
41685;SDS011;27370;42.764;23.432;2022-11-15T06:11:25;489.20;;;101.68;;
41685;SDS011;27370;42.764;23.432;2022-11-15T06:14:09;518.58;;;106.75;;
41685;SDS011;27370;42.764;23.432;2022-11-15T06:16:53;467.10;;;117.03;;
41685;SDS011;27370;42.764;23.432;2022-11-15T06:19:37;463.88;;;107.10;;
41685;SDS011;27370;42.764;23.432;2022-11-15T06:22:21;509.23;;;94.15;;
41685;SDS011;27370;42.764;23.432;2022-11-15T06:25:05;398.25;;;78.80;;
41685;SDS011;27370;42.764;23.432;2022-11-15T06:27:56;362.75;;;69.55;;
41685;SDS011;27370;42.764;23.432;2022-11-15T06:30:42;335.88;;;59.28;;
41685;SDS011;27370;42.764;23.432;2022-11-15T06:33:26;356.17;;;60.88;;
41685;SDS011;27370;42.764;23.432;2022-11-15T06:36:11;362.95;;;60.80;;
41685;SDS011;27370;42.764;23.432;2022-11-15T06:38:58;341.15;;;61.60;;
41685;SDS011;27370;42.764;23.432;2022-11-15T06:41:42;281.65;;;59.85;;
41685;SDS011;27370;42.764;23.432;2022-11-15T06:44:26;373.38;;;60.55;;
41685;SDS011;27370;42.764;23.432;2022-11-15T06:47:10;381.35;;;59.58;;
41685;SDS011;27370;42.764;23.432;2022-11-15T06:49:54;257.75;;;54.25;;
41685;SDS011;27370;42.764;23.432;2022-11-15T06:52:38;216.45;;;54.78;;
41685;SDS011;27370;42.764;23.432;2022-11-15T06:55:22;247.82;;;56.80;;
41685;SDS011;27370;42.764;23.432;2022-11-15T06:58:06;429.63;;;70.60;;
41685;SDS011;27370;42.764;23.432;2022-11-15T07:00:50;213.32;;;58.22;;
41685;SDS011;27370;42.764;23.432;2022-11-15T07:03:34;307.55;;;60.25;;
41685;SDS011;27370;42.764;23.432;2022-11-15T07:06:19;323.85;;;61.22;;
41685;SDS011;27370;42.764;23.432;2022-11-15T07:09:03;211.57;;;57.13;;
41685;SDS011;27370;42.764;23.432;2022-11-15T07:11:48;195.18;;;52.33;;
41685;SDS011;27370;42.764;23.432;2022-11-15T07:14:31;207.65;;;58.50;;
41685;SDS011;27370;42.764;23.432;2022-11-15T07:17:15;297.60;;;60.53;;
41685;SDS011;27370;42.764;23.432;2022-11-15T07:19:59;259.00;;;54.78;;
41685;SDS011;27370;42.764;23.432;2022-11-15T07:22:43;189.15;;;51.47;;
41685;SDS011;27370;42.764;23.432;2022-11-15T07:25:31;162.13;;;46.97;;
41685;SDS011;27370;42.764;23.432;2022-11-15T07:28:16;176.02;;;46.63;;
41685;SDS011;27370;42.764;23.432;2022-11-15T07:31:03;137.68;;;46.85;;
41685;SDS011;27370;42.764;23.432;2022-11-15T07:33:49;153.20;;;45.95;;
41685;SDS011;27370;42.764;23.432;2022-11-15T07:36:33;110.50;;;40.63;;
41685;SDS011;27370;42.764;23.432;2022-11-15T07:39:16;85.32;;;35.35;;
41685;SDS011;27370;42.764;23.432;2022-11-15T07:42:00;99.65;;;34.78;;
41685;SDS011;27370;42.764;23.432;2022-11-15T07:45:03;88.32;;;33.33;;
41685;SDS011;27370;42.764;23.432;2022-11-15T07:47:49;61.70;;;27.10;;
41685;SDS011;27370;42.764;23.432;2022-11-15T07:50:33;64.38;;;28.90;;
41685;SDS011;27370;42.764;23.432;2022-11-15T07:53:17;38.83;;;20.48;;
41685;SDS011;27370;42.764;23.432;2022-11-15T07:56:01;39.28;;;21.70;;
41685;SDS011;27370;42.764;23.432;2022-11-15T07:58:45;42.65;;;20.00;;
41685;SDS011;27370;42.764;23.432;2022-11-15T08:01:29;43.20;;;21.67;;
41685;SDS011;27370;42.764;23.432;2022-11-15T08:04:13;50.00;;;23.02;;
41685;SDS011;27370;42.764;23.432;2022-11-15T08:06:57;50.80;;;24.45;;
41685;SDS011;27370;42.764;23.432;2022-11-15T08:09:42;52.13;;;26.17;;
41685;SDS011;27370;42.764;23.432;2022-11-15T08:12:29;54.33;;;27.77;;
41685;SDS011;27370;42.764;23.432;2022-11-15T08:15:13;53.83;;;28.02;;
41685;SDS011;27370;42.764;23.432;2022-11-15T08:17:58;48.15;;;26.48;;
41685;SDS011;27370;42.764;23.432;2022-11-15T08:20:43;57.13;;;31.35;;
41685;SDS011;27370;42.764;23.432;2022-11-15T08:23:27;53.95;;;29.17;;
41685;SDS011;27370;42.764;23.432;2022-11-15T08:26:12;45.88;;;26.45;;
41685;SDS011;27370;42.764;23.432;2022-11-15T08:28:56;52.65;;;28.75;;
41685;SDS011;27370;42.764;23.432;2022-11-15T08:31:40;47.85;;;28.40;;
41685;SDS011;27370;42.764;23.432;2022-11-15T08:34:25;44.78;;;26.30;;
41685;SDS011;27370;42.764;23.432;2022-11-15T08:37:09;42.22;;;25.80;;
41685;SDS011;27370;42.764;23.432;2022-11-15T08:39:53;41.78;;;25.45;;
41685;SDS011;27370;42.764;23.432;2022-11-15T08:42:37;48.95;;;24.63;;
41685;SDS011;27370;42.764;23.432;2022-11-15T08:45:20;40.35;;;22.80;;
41685;SDS011;27370;42.764;23.432;2022-11-15T08:48:04;45.85;;;22.95;;
41685;SDS011;27370;42.764;23.432;2022-11-15T08:50:53;39.15;;;22.83;;
41685;SDS011;27370;42.764;23.432;2022-11-15T08:53:38;37.15;;;22.17;;
41685;SDS011;27370;42.764;23.432;2022-11-15T08:56:23;40.50;;;23.38;;
41685;SDS011;27370;42.764;23.432;2022-11-15T08:59:07;40.58;;;23.83;;
41685;SDS011;27370;42.764;23.432;2022-11-15T09:01:50;42.25;;;23.88;;
41685;SDS011;27370;42.764;23.432;2022-11-15T09:04:35;41.78;;;22.83;;
41685;SDS011;27370;42.764;23.432;2022-11-15T09:07:18;46.35;;;26.45;;
41685;SDS011;27370;42.764;23.432;2022-11-15T09:10:02;47.60;;;28.25;;
41685;SDS011;27370;42.764;23.432;2022-11-15T09:12:47;43.75;;;26.52;;
41685;SDS011;27370;42.764;23.432;2022-11-15T09:15:32;42.53;;;26.50;;
41685;SDS011;27370;42.764;23.432;2022-11-15T09:18:16;43.30;;;24.92;;
41685;SDS011;27370;42.764;23.432;2022-11-15T09:21:00;41.63;;;23.85;;
41685;SDS011;27370;42.764;23.432;2022-11-15T09:23:46;41.25;;;25.00;;
41685;SDS011;27370;42.764;23.432;2022-11-15T09:26:30;48.38;;;28.27;;
41685;SDS011;27370;42.764;23.432;2022-11-15T09:29:14;50.85;;;30.75;;
41685;SDS011;27370;42.764;23.432;2022-11-15T09:31:58;47.03;;;27.70;;
41685;SDS011;27370;42.764;23.432;2022-11-15T09:34:41;43.30;;;25.42;;
41685;SDS011;27370;42.764;23.432;2022-11-15T09:37:25;39.10;;;24.52;;
41685;SDS011;27370;42.764;23.432;2022-11-15T09:40:11;42.72;;;26.20;;
41685;SDS011;27370;42.764;23.432;2022-11-15T09:43:11;44.05;;;26.08;;
41685;SDS011;27370;42.764;23.432;2022-11-15T09:46:22;44.00;;;25.38;;
41685;SDS011;27370;42.764;23.432;2022-11-15T09:49:37;46.65;;;27.65;;
41685;SDS011;27370;42.764;23.432;2022-11-15T09:52:12;44.92;;;27.90;;
41685;SDS011;27370;42.764;23.432;2022-11-15T09:54:38;48.65;;;29.85;;
41685;SDS011;27370;42.764;23.432;2022-11-15T09:57:13;45.10;;;27.93;;
41685;SDS011;27370;42.764;23.432;2022-11-15T10:05:32;51.70;;;34.45;;
41685;SDS011;27370;42.764;23.432;2022-11-15T10:10:57;44.17;;;27.95;;
41685;SDS011;27370;42.764;23.432;2022-11-15T10:13:26;43.58;;;26.40;;
41685;SDS011;27370;42.764;23.432;2022-11-15T10:15:58;42.67;;;25.40;;
41685;SDS011;27370;42.764;23.432;2022-11-15T10:24:12;42.95;;;26.73;;
41685;SDS011;27370;42.764;23.432;2022-11-15T10:26:45;40.80;;;25.60;;
41685;SDS011;27370;42.764;23.432;2022-11-15T10:29:17;44.60;;;25.88;;
41685;SDS011;27370;42.764;23.432;2022-11-15T10:31:43;43.72;;;26.45;;
41685;SDS011;27370;42.764;23.432;2022-11-15T10:36:59;42.70;;;26.25;;
41685;SDS011;27370;42.764;23.432;2022-11-15T10:39:27;41.35;;;26.58;;
41685;SDS011;27370;42.764;23.432;2022-11-15T10:41:52;43.65;;;26.98;;
41685;SDS011;27370;42.764;23.432;2022-11-15T10:44:20;42.72;;;26.77;;
41685;SDS011;27370;42.764;23.432;2022-11-15T10:51:54;41.65;;;26.50;;
41685;SDS011;27370;42.764;23.432;2022-11-15T10:54:39;47.10;;;29.55;;
41685;SDS011;27370;42.764;23.432;2022-11-15T10:57:10;46.00;;;29.38;;
41685;SDS011;27370;42.764;23.432;2022-11-15T10:59:38;44.83;;;29.02;;
41685;SDS011;27370;42.764;23.432;2022-11-15T11:04:57;42.03;;;28.08;;
41685;SDS011;27370;42.764;23.432;2022-11-15T11:07:24;43.85;;;28.25;;
41685;SDS011;27370;42.764;23.432;2022-11-15T11:10:37;45.53;;;29.05;;
41685;SDS011;27370;42.764;23.432;2022-11-15T11:12:45;46.22;;;28.85;;
41685;SDS011;27370;42.764;23.432;2022-11-15T11:15:12;46.80;;;29.52;;
41685;SDS011;27370;42.764;23.432;2022-11-15T11:20:48;48.00;;;29.10;;
41685;SDS011;27370;42.764;23.432;2022-11-15T11:25:55;45.40;;;30.45;;
41685;SDS011;27370;42.764;23.432;2022-11-15T11:37:03;47.50;;;29.27;;
41685;SDS011;27370;42.764;23.432;2022-11-15T11:42:47;44.40;;;28.85;;
41685;SDS011;27370;42.764;23.432;2022-11-15T11:50:39;43.85;;;28.13;;
41685;SDS011;27370;42.764;23.432;2022-11-15T11:58:51;41.35;;;27.15;;
41685;SDS011;27370;42.764;23.432;2022-11-15T12:01:26;46.45;;;29.17;;
41685;SDS011;27370;42.764;23.432;2022-11-15T12:06:53;42.08;;;27.30;;
41685;SDS011;27370;42.764;23.432;2022-11-15T12:09:35;42.70;;;28.42;;
41685;SDS011;27370;42.764;23.432;2022-11-15T12:12:08;41.03;;;27.63;;
41685;SDS011;27370;42.764;23.432;2022-11-15T12:17:42;46.67;;;30.38;;
41685;SDS011;27370;42.764;23.432;2022-11-15T12:20:17;46.60;;;31.52;;
41685;SDS011;27370;42.764;23.432;2022-11-15T12:25:24;43.85;;;28.55;;
41685;SDS011;27370;42.764;23.432;2022-11-15T12:27:57;43.03;;;27.40;;
41685;SDS011;27370;42.764;23.432;2022-11-15T12:30:23;41.58;;;27.73;;
41685;SDS011;27370;42.764;23.432;2022-11-15T12:32:57;39.92;;;26.27;;
41685;SDS011;27370;42.764;23.432;2022-11-15T12:35:25;40.53;;;26.67;;
41685;SDS011;27370;42.764;23.432;2022-11-15T12:38:00;40.20;;;28.35;;
41685;SDS011;27370;42.764;23.432;2022-11-15T12:40:30;45.70;;;30.83;;
41685;SDS011;27370;42.764;23.432;2022-11-15T12:45:38;38.25;;;26.08;;
41685;SDS011;27370;42.764;23.432;2022-11-15T12:56:23;43.55;;;30.10;;
41685;SDS011;27370;42.764;23.432;2022-11-15T12:58:55;44.05;;;29.60;;
41685;SDS011;27370;42.764;23.432;2022-11-15T13:07:02;38.97;;;29.05;;
41685;SDS011;27370;42.764;23.432;2022-11-15T13:12:01;42.75;;;29.65;;
41685;SDS011;27370;42.764;23.432;2022-11-15T13:17:32;41.78;;;29.02;;
41685;SDS011;27370;42.764;23.432;2022-11-15T13:22:37;42.38;;;28.52;;
41685;SDS011;27370;42.764;23.432;2022-11-15T13:25:21;44.25;;;29.73;;
41685;SDS011;27370;42.764;23.432;2022-11-15T13:27:48;47.55;;;30.50;;
41685;SDS011;27370;42.764;23.432;2022-11-15T13:30:18;42.55;;;29.58;;
41685;SDS011;27370;42.764;23.432;2022-11-15T13:32:46;44.42;;;29.88;;
41685;SDS011;27370;42.764;23.432;2022-11-15T13:37:52;47.13;;;30.88;;
41685;SDS011;27370;42.764;23.432;2022-11-15T13:42:50;46.28;;;31.85;;
41685;SDS011;27370;42.764;23.432;2022-11-15T13:45:16;48.65;;;32.85;;
41685;SDS011;27370;42.764;23.432;2022-11-15T13:47:43;49.60;;;31.83;;
41685;SDS011;27370;42.764;23.432;2022-11-15T13:50:12;48.80;;;30.30;;
41685;SDS011;27370;42.764;23.432;2022-11-15T13:52:39;46.05;;;30.70;;
41685;SDS011;27370;42.764;23.432;2022-11-15T13:55:13;43.03;;;29.48;;
41685;SDS011;27370;42.764;23.432;2022-11-15T13:57:44;45.78;;;29.98;;
41685;SDS011;27370;42.764;23.432;2022-11-15T14:05:40;46.60;;;29.95;;
41685;SDS011;27370;42.764;23.432;2022-11-15T14:10:38;48.05;;;33.10;;
41685;SDS011;27370;42.764;23.432;2022-11-15T14:13:09;48.22;;;33.65;;
41685;SDS011;27370;42.764;23.432;2022-11-15T14:15:51;52.13;;;35.50;;
41685;SDS011;27370;42.764;23.432;2022-11-15T14:23:34;53.35;;;33.10;;
41685;SDS011;27370;42.764;23.432;2022-11-15T14:25:59;45.42;;;31.65;;
41685;SDS011;27370;42.764;23.432;2022-11-15T14:30:52;50.80;;;34.05;;
41685;SDS011;27370;42.764;23.432;2022-11-15T14:35:49;53.80;;;36.90;;
41685;SDS011;27370;42.764;23.432;2022-11-15T14:38:18;56.10;;;35.90;;
41685;SDS011;27370;42.764;23.432;2022-11-15T14:40:44;51.30;;;34.20;;
41685;SDS011;27370;42.764;23.432;2022-11-15T14:43:10;54.70;;;35.63;;
41685;SDS011;27370;42.764;23.432;2022-11-15T14:45:36;52.75;;;34.30;;
41685;SDS011;27370;42.764;23.432;2022-11-15T14:48:02;54.58;;;35.08;;
41685;SDS011;27370;42.764;23.432;2022-11-15T14:50:28;52.00;;;34.42;;
41685;SDS011;27370;42.764;23.432;2022-11-15T14:52:54;54.30;;;35.38;;
41685;SDS011;27370;42.764;23.432;2022-11-15T14:55:20;57.75;;;35.90;;
41685;SDS011;27370;42.764;23.432;2022-11-15T14:57:49;69.88;;;42.60;;
41685;SDS011;27370;42.764;23.432;2022-11-15T15:00:15;103.43;;;56.50;;
41685;SDS011;27370;42.764;23.432;2022-11-15T15:02:41;116.22;;;64.53;;
41685;SDS011;27370;42.764;23.432;2022-11-15T15:05:16;125.32;;;71.38;;
41685;SDS011;27370;42.764;23.432;2022-11-15T15:08:11;133.52;;;73.05;;
41685;SDS011;27370;42.764;23.432;2022-11-15T15:10:40;127.57;;;69.57;;
41685;SDS011;27370;42.764;23.432;2022-11-15T15:13:12;112.95;;;61.60;;
41685;SDS011;27370;42.764;23.432;2022-11-15T15:15:41;142.70;;;77.13;;
41685;SDS011;27370;42.764;23.432;2022-11-15T15:18:07;132.07;;;74.45;;
41685;SDS011;27370;42.764;23.432;2022-11-15T15:20:34;118.38;;;66.45;;
41685;SDS011;27370;42.764;23.432;2022-11-15T15:27:55;90.93;;;52.28;;
41685;SDS011;27370;42.764;23.432;2022-11-15T15:30:25;82.00;;;47.20;;
41685;SDS011;27370;42.764;23.432;2022-11-15T15:32:51;88.03;;;52.75;;
41685;SDS011;27370;42.764;23.432;2022-11-15T15:35:17;81.82;;;49.50;;
41685;SDS011;27370;42.764;23.432;2022-11-15T15:37:43;95.05;;;53.38;;
41685;SDS011;27370;42.764;23.432;2022-11-15T15:40:15;75.82;;;49.25;;
41685;SDS011;27370;42.764;23.432;2022-11-15T15:42:48;81.47;;;48.60;;
41685;SDS011;27370;42.764;23.432;2022-11-15T15:45:14;83.93;;;54.53;;
41685;SDS011;27370;42.764;23.432;2022-11-15T15:47:40;103.15;;;67.82;;
41685;SDS011;27370;42.764;23.432;2022-11-15T15:52:52;76.22;;;49.50;;
41685;SDS011;27370;42.764;23.432;2022-11-15T15:55:19;86.65;;;51.03;;
41685;SDS011;27370;42.764;23.432;2022-11-15T15:57:45;81.07;;;48.35;;
41685;SDS011;27370;42.764;23.432;2022-11-15T16:00:11;76.18;;;46.40;;
41685;SDS011;27370;42.764;23.432;2022-11-15T16:02:37;77.53;;;48.05;;
41685;SDS011;27370;42.764;23.432;2022-11-15T16:05:03;82.05;;;48.72;;
41685;SDS011;27370;42.764;23.432;2022-11-15T16:07:29;79.78;;;50.13;;
41685;SDS011;27370;42.764;23.432;2022-11-15T16:09:55;89.25;;;52.88;;
41685;SDS011;27370;42.764;23.432;2022-11-15T16:12:31;96.60;;;55.63;;
41685;SDS011;27370;42.764;23.432;2022-11-15T16:14:58;112.05;;;62.55;;
41685;SDS011;27370;42.764;23.432;2022-11-15T16:17:26;109.18;;;63.28;;
41685;SDS011;27370;42.764;23.432;2022-11-15T16:19:54;114.68;;;63.30;;
41685;SDS011;27370;42.764;23.432;2022-11-15T16:22:19;111.57;;;61.85;;
41685;SDS011;27370;42.764;23.432;2022-11-15T16:24:45;99.72;;;57.47;;
41685;SDS011;27370;42.764;23.432;2022-11-15T16:27:14;114.72;;;65.13;;
41685;SDS011;27370;42.764;23.432;2022-11-15T16:29:41;109.90;;;64.65;;
41685;SDS011;27370;42.764;23.432;2022-11-15T16:32:07;106.63;;;61.10;;
41685;SDS011;27370;42.764;23.432;2022-11-15T16:34:33;109.72;;;61.88;;
41685;SDS011;27370;42.764;23.432;2022-11-15T16:36:58;108.55;;;63.88;;
41685;SDS011;27370;42.764;23.432;2022-11-15T16:39:24;100.78;;;59.70;;
41685;SDS011;27370;42.764;23.432;2022-11-15T16:41:50;117.25;;;67.13;;
41685;SDS011;27370;42.764;23.432;2022-11-15T16:44:15;126.80;;;70.25;;
41685;SDS011;27370;42.764;23.432;2022-11-15T16:46:41;105.82;;;59.88;;
41685;SDS011;27370;42.764;23.432;2022-11-15T16:49:11;111.63;;;61.20;;
41685;SDS011;27370;42.764;23.432;2022-11-15T16:51:38;124.90;;;73.35;;
41685;SDS011;27370;42.764;23.432;2022-11-15T16:54:05;163.23;;;90.10;;
41685;SDS011;27370;42.764;23.432;2022-11-15T16:56:31;144.48;;;79.07;;
41685;SDS011;27370;42.764;23.432;2022-11-15T16:58:58;138.23;;;78.63;;
41685;SDS011;27370;42.764;23.432;2022-11-15T17:01:26;128.27;;;74.30;;
41685;SDS011;27370;42.764;23.432;2022-11-15T17:03:53;142.90;;;82.60;;
41685;SDS011;27370;42.764;23.432;2022-11-15T17:06:19;174.40;;;102.57;;
41685;SDS011;27370;42.764;23.432;2022-11-15T17:08:46;145.88;;;79.60;;
41685;SDS011;27370;42.764;23.432;2022-11-15T17:11:16;139.38;;;77.47;;
41685;SDS011;27370;42.764;23.432;2022-11-15T17:13:44;97.82;;;54.03;;
41685;SDS011;27370;42.764;23.432;2022-11-15T17:16:14;132.65;;;76.25;;
41685;SDS011;27370;42.764;23.432;2022-11-15T17:18:41;127.30;;;72.10;;
41685;SDS011;27370;42.764;23.432;2022-11-15T17:23:37;116.57;;;63.83;;
41685;SDS011;27370;42.764;23.432;2022-11-15T17:26:04;123.93;;;71.30;;
41685;SDS011;27370;42.764;23.432;2022-11-15T17:28:31;146.13;;;84.18;;
41685;SDS011;27370;42.764;23.432;2022-11-15T17:30:57;118.85;;;69.63;;
41685;SDS011;27370;42.764;23.432;2022-11-15T17:33:24;132.90;;;81.40;;
41685;SDS011;27370;42.764;23.432;2022-11-15T17:35:59;128.57;;;76.18;;
41685;SDS011;27370;42.764;23.432;2022-11-15T17:38:26;125.25;;;68.65;;
41685;SDS011;27370;42.764;23.432;2022-11-15T17:41:02;118.00;;;63.13;;
41685;SDS011;27370;42.764;23.432;2022-11-15T17:43:28;124.90;;;62.17;;
41685;SDS011;27370;42.764;23.432;2022-11-15T17:45:55;124.95;;;64.75;;
41685;SDS011;27370;42.764;23.432;2022-11-15T17:48:21;119.45;;;69.18;;
41685;SDS011;27370;42.764;23.432;2022-11-15T17:50:56;118.90;;;67.25;;
41685;SDS011;27370;42.764;23.432;2022-11-15T17:53:24;113.00;;;62.25;;